Main page
METAR-TAF:

METAR-TAF

Airports :

Abadeh Airport

Abadeh, Iran

latitude: 31-11N, longitude: 052-40E, elevation: 2004 m

Current weather observation

The report was made 32 minutes ago, at 22:00 UTC
Calm wind
Temperature 9°C
Humidity 66%
Pressure 1026 hPa

METAR: OISA 222200Z AUTO VRB00KT //// // ////// 09/03 Q1026

Time: 02:02 (22:32 UTC)


TAF: missing

Weather observations and forecasts of more than 4000 airports (METAR and TAF reports).

The available stations are represented by yellow and red dots on the map.

Hover mouse over dot to see the name of the station.

Then click to see weather observations and forecasts.

To change the map : click on the green buttons with a black cross to zoom in, on the green button with a dash to zoom out, or on the green arrows for adjacent maps.


METAR-TAF: